sensor_id;sensor_type;location;lat;lon;timestamp;P1;durP1;ratioP1;P2;durP2;ratioP2
25479;SDS011;13393;49.378;8.686;2022-08-19T00:01:17;14.82;;;12.88;;
25479;SDS011;13393;49.378;8.686;2022-08-19T00:03:43;14.10;;;12.70;;
25479;SDS011;13393;49.378;8.686;2022-08-19T00:06:09;14.25;;;12.75;;
25479;SDS011;13393;49.378;8.686;2022-08-19T00:08:36;14.68;;;13.18;;
25479;SDS011;13393;49.378;8.686;2022-08-19T00:11:03;15.68;;;12.90;;
25479;SDS011;13393;49.378;8.686;2022-08-19T00:13:29;15.95;;;13.57;;
25479;SDS011;13393;49.378;8.686;2022-08-19T00:15:57;15.00;;;13.43;;
25479;SDS011;13393;49.378;8.686;2022-08-19T00:18:25;13.95;;;12.65;;
25479;SDS011;13393;49.378;8.686;2022-08-19T00:20:52;15.23;;;13.73;;
25479;SDS011;13393;49.378;8.686;2022-08-19T00:23:18;15.35;;;13.50;;
25479;SDS011;13393;49.378;8.686;2022-08-19T00:25:45;15.63;;;13.93;;
25479;SDS011;13393;49.378;8.686;2022-08-19T00:28:11;15.30;;;13.70;;
25479;SDS011;13393;49.378;8.686;2022-08-19T00:30:38;14.70;;;13.13;;
25479;SDS011;13393;49.378;8.686;2022-08-19T00:33:06;14.75;;;13.35;;
25479;SDS011;13393;49.378;8.686;2022-08-19T00:35:33;17.13;;;14.00;;
25479;SDS011;13393;49.378;8.686;2022-08-19T00:38:00;15.32;;;13.85;;
25479;SDS011;13393;49.378;8.686;2022-08-19T00:40:26;15.80;;;13.77;;
25479;SDS011;13393;49.378;8.686;2022-08-19T00:42:53;15.85;;;14.25;;
25479;SDS011;13393;49.378;8.686;2022-08-19T00:45:20;16.17;;;14.38;;
25479;SDS011;13393;49.378;8.686;2022-08-19T00:47:47;16.88;;;15.18;;
25479;SDS011;13393;49.378;8.686;2022-08-19T00:50:16;15.70;;;14.10;;
25479;SDS011;13393;49.378;8.686;2022-08-19T00:52:44;15.85;;;14.02;;
25479;SDS011;13393;49.378;8.686;2022-08-19T00:55:12;15.60;;;14.02;;
25479;SDS011;13393;49.378;8.686;2022-08-19T00:57:40;15.63;;;14.13;;
25479;SDS011;13393;49.378;8.686;2022-08-19T01:00:09;16.08;;;14.38;;
25479;SDS011;13393;49.378;8.686;2022-08-19T01:02:36;16.25;;;14.45;;
25479;SDS011;13393;49.378;8.686;2022-08-19T01:05:04;14.38;;;12.95;;
25479;SDS011;13393;49.378;8.686;2022-08-19T01:07:32;16.60;;;14.80;;
25479;SDS011;13393;49.378;8.686;2022-08-19T01:09:59;16.45;;;14.82;;
25479;SDS011;13393;49.378;8.686;2022-08-19T01:12:26;15.82;;;14.25;;
25479;SDS011;13393;49.378;8.686;2022-08-19T01:14:53;15.88;;;14.30;;
25479;SDS011;13393;49.378;8.686;2022-08-19T01:17:20;16.27;;;14.52;;
25479;SDS011;13393;49.378;8.686;2022-08-19T01:19:46;15.98;;;13.70;;
25479;SDS011;13393;49.378;8.686;2022-08-19T01:22:15;15.35;;;13.85;;
25479;SDS011;13393;49.378;8.686;2022-08-19T01:24:43;15.52;;;14.02;;
25479;SDS011;13393;49.378;8.686;2022-08-19T01:27:10;16.10;;;14.40;;
25479;SDS011;13393;49.378;8.686;2022-08-19T01:29:38;15.50;;;13.80;;
25479;SDS011;13393;49.378;8.686;2022-08-19T01:32:05;17.25;;;13.95;;
25479;SDS011;13393;49.378;8.686;2022-08-19T01:34:32;17.05;;;14.82;;
25479;SDS011;13393;49.378;8.686;2022-08-19T01:36:59;16.88;;;14.38;;
25479;SDS011;13393;49.378;8.686;2022-08-19T01:39:26;16.50;;;14.70;;
25479;SDS011;13393;49.378;8.686;2022-08-19T01:41:54;16.17;;;14.30;;
25479;SDS011;13393;49.378;8.686;2022-08-19T01:44:21;16.52;;;14.85;;
25479;SDS011;13393;49.378;8.686;2022-08-19T01:46:49;16.33;;;14.48;;
25479;SDS011;13393;49.378;8.686;2022-08-19T01:49:17;19.27;;;15.30;;
25479;SDS011;13393;49.378;8.686;2022-08-19T01:51:44;16.80;;;15.00;;
25479;SDS011;13393;49.378;8.686;2022-08-19T01:54:11;16.92;;;15.18;;
25479;SDS011;13393;49.378;8.686;2022-08-19T01:56:38;16.13;;;14.52;;
25479;SDS011;13393;49.378;8.686;2022-08-19T01:59:08;16.80;;;14.70;;
25479;SDS011;13393;49.378;8.686;2022-08-19T02:01:36;16.30;;;14.65;;
25479;SDS011;13393;49.378;8.686;2022-08-19T02:04:02;18.45;;;15.82;;
25479;SDS011;13393;49.378;8.686;2022-08-19T02:06:30;15.82;;;14.23;;
25479;SDS011;13393;49.378;8.686;2022-08-19T02:08:56;16.15;;;14.45;;
25479;SDS011;13393;49.378;8.686;2022-08-19T02:11:23;15.82;;;14.13;;
25479;SDS011;13393;49.378;8.686;2022-08-19T02:13:51;16.38;;;14.68;;
25479;SDS011;13393;49.378;8.686;2022-08-19T02:16:19;17.13;;;15.45;;
25479;SDS011;13393;49.378;8.686;2022-08-19T02:18:46;17.02;;;15.23;;
25479;SDS011;13393;49.378;8.686;2022-08-19T02:21:13;16.63;;;14.82;;
25479;SDS011;13393;49.378;8.686;2022-08-19T02:23:40;16.73;;;14.60;;
25479;SDS011;13393;49.378;8.686;2022-08-19T02:26:07;18.60;;;14.60;;
25479;SDS011;13393;49.378;8.686;2022-08-19T02:28:33;18.42;;;15.73;;
25479;SDS011;13393;49.378;8.686;2022-08-19T02:30:59;17.05;;;15.25;;
25479;SDS011;13393;49.378;8.686;2022-08-19T02:33:29;16.85;;;15.10;;
25479;SDS011;13393;49.378;8.686;2022-08-19T02:35:55;19.60;;;15.50;;
25479;SDS011;13393;49.378;8.686;2022-08-19T02:38:22;16.23;;;14.52;;
25479;SDS011;13393;49.378;8.686;2022-08-19T02:40:50;17.45;;;15.75;;
25479;SDS011;13393;49.378;8.686;2022-08-19T02:43:17;19.15;;;15.50;;
25479;SDS011;13393;49.378;8.686;2022-08-19T02:45:45;18.88;;;16.98;;
25479;SDS011;13393;49.378;8.686;2022-08-19T02:48:13;19.98;;;17.02;;
25479;SDS011;13393;49.378;8.686;2022-08-19T02:50:41;17.80;;;15.90;;
25479;SDS011;13393;49.378;8.686;2022-08-19T02:53:07;18.80;;;16.80;;
25479;SDS011;13393;49.378;8.686;2022-08-19T02:55:34;19.13;;;17.05;;
25479;SDS011;13393;49.378;8.686;2022-08-19T02:58:00;19.08;;;17.15;;
25479;SDS011;13393;49.378;8.686;2022-08-19T03:00:27;18.73;;;16.73;;
25479;SDS011;13393;49.378;8.686;2022-08-19T03:02:53;18.85;;;16.02;;
25479;SDS011;13393;49.378;8.686;2022-08-19T03:05:21;19.73;;;17.63;;
25479;SDS011;13393;49.378;8.686;2022-08-19T03:07:48;18.83;;;16.52;;
25479;SDS011;13393;49.378;8.686;2022-08-19T03:10:15;19.08;;;17.08;;
25479;SDS011;13393;49.378;8.686;2022-08-19T03:12:41;20.05;;;17.67;;
25479;SDS011;13393;49.378;8.686;2022-08-19T03:15:08;18.58;;;15.95;;
25479;SDS011;13393;49.378;8.686;2022-08-19T03:17:34;18.40;;;16.52;;
25479;SDS011;13393;49.378;8.686;2022-08-19T03:20:01;19.90;;;17.75;;
25479;SDS011;13393;49.378;8.686;2022-08-19T03:22:27;19.50;;;16.80;;
25479;SDS011;13393;49.378;8.686;2022-08-19T03:24:56;19.33;;;17.25;;
25479;SDS011;13393;49.378;8.686;2022-08-19T03:27:24;19.63;;;16.67;;
25479;SDS011;13393;49.378;8.686;2022-08-19T03:29:50;18.67;;;16.45;;
25479;SDS011;13393;49.378;8.686;2022-08-19T03:32:17;19.90;;;16.83;;
25479;SDS011;13393;49.378;8.686;2022-08-19T03:34:43;18.45;;;16.48;;
25479;SDS011;13393;49.378;8.686;2022-08-19T03:37:10;18.42;;;16.52;;
25479;SDS011;13393;49.378;8.686;2022-08-19T03:39:38;18.65;;;16.55;;
25479;SDS011;13393;49.378;8.686;2022-08-19T03:42:06;19.13;;;17.10;;
25479;SDS011;13393;49.378;8.686;2022-08-19T03:44:32;21.02;;;17.38;;
25479;SDS011;13393;49.378;8.686;2022-08-19T03:46:59;20.88;;;18.23;;
25479;SDS011;13393;49.378;8.686;2022-08-19T03:49:27;18.88;;;16.88;;
25479;SDS011;13393;49.378;8.686;2022-08-19T03:51:55;19.17;;;16.73;;
25479;SDS011;13393;49.378;8.686;2022-08-19T03:54:22;19.17;;;17.17;;
25479;SDS011;13393;49.378;8.686;2022-08-19T03:56:49;20.75;;;16.98;;
25479;SDS011;13393;49.378;8.686;2022-08-19T03:59:18;21.75;;;18.00;;
25479;SDS011;13393;49.378;8.686;2022-08-19T04:01:45;20.02;;;17.92;;
25479;SDS011;13393;49.378;8.686;2022-08-19T04:04:11;23.10;;;17.92;;
25479;SDS011;13393;49.378;8.686;2022-08-19T04:06:39;20.80;;;18.20;;
25479;SDS011;13393;49.378;8.686;2022-08-19T04:09:06;22.58;;;18.58;;
25479;SDS011;13393;49.378;8.686;2022-08-19T04:11:35;20.17;;;18.05;;
25479;SDS011;13393;49.378;8.686;2022-08-19T04:14:06;19.08;;;16.67;;
25479;SDS011;13393;49.378;8.686;2022-08-19T04:16:34;20.20;;;18.10;;
25479;SDS011;13393;49.378;8.686;2022-08-19T04:19:01;19.73;;;17.73;;
25479;SDS011;13393;49.378;8.686;2022-08-19T04:21:28;21.55;;;18.67;;
25479;SDS011;13393;49.378;8.686;2022-08-19T04:23:55;20.17;;;18.02;;
25479;SDS011;13393;49.378;8.686;2022-08-19T04:26:23;18.88;;;16.88;;
25479;SDS011;13393;49.378;8.686;2022-08-19T04:28:49;19.02;;;17.10;;
25479;SDS011;13393;49.378;8.686;2022-08-19T04:31:17;22.92;;;17.25;;
25479;SDS011;13393;49.378;8.686;2022-08-19T04:33:45;19.17;;;17.20;;
25479;SDS011;13393;49.378;8.686;2022-08-19T04:36:15;19.88;;;17.33;;
25479;SDS011;13393;49.378;8.686;2022-08-19T04:38:42;22.80;;;18.20;;
25479;SDS011;13393;49.378;8.686;2022-08-19T04:41:09;21.67;;;18.42;;
25479;SDS011;13393;49.378;8.686;2022-08-19T04:43:53;20.77;;;18.40;;
25479;SDS011;13393;49.378;8.686;2022-08-19T04:46:19;19.58;;;16.30;;
25479;SDS011;13393;49.378;8.686;2022-08-19T04:48:47;21.25;;;17.55;;
25479;SDS011;13393;49.378;8.686;2022-08-19T04:51:13;21.10;;;18.92;;
25479;SDS011;13393;49.378;8.686;2022-08-19T04:53:41;22.92;;;18.85;;
25479;SDS011;13393;49.378;8.686;2022-08-19T04:56:08;20.45;;;18.38;;
25479;SDS011;13393;49.378;8.686;2022-08-19T04:58:35;20.70;;;18.35;;
25479;SDS011;13393;49.378;8.686;2022-08-19T05:01:02;20.48;;;18.33;;
25479;SDS011;13393;49.378;8.686;2022-08-19T05:03:28;23.30;;;19.98;;
25479;SDS011;13393;49.378;8.686;2022-08-19T05:05:59;21.40;;;18.88;;
25479;SDS011;13393;49.378;8.686;2022-08-19T05:08:29;21.92;;;19.15;;
25479;SDS011;13393;49.378;8.686;2022-08-19T05:10:56;21.08;;;18.90;;
25479;SDS011;13393;49.378;8.686;2022-08-19T05:13:23;20.35;;;17.92;;
25479;SDS011;13393;49.378;8.686;2022-08-19T05:15:53;25.40;;;17.88;;
25479;SDS011;13393;49.378;8.686;2022-08-19T05:18:20;25.08;;;18.80;;
25479;SDS011;13393;49.378;8.686;2022-08-19T05:21:06;21.00;;;18.58;;
25479;SDS011;13393;49.378;8.686;2022-08-19T05:23:50;20.67;;;18.40;;
25479;SDS011;13393;49.378;8.686;2022-08-19T05:26:16;21.23;;;18.92;;
25479;SDS011;13393;49.378;8.686;2022-08-19T05:28:43;20.88;;;18.52;;
25479;SDS011;13393;49.378;8.686;2022-08-19T05:31:09;25.58;;;19.67;;
25479;SDS011;13393;49.378;8.686;2022-08-19T05:33:35;22.58;;;18.85;;
25479;SDS011;13393;49.378;8.686;2022-08-19T05:36:02;21.55;;;18.95;;
25479;SDS011;13393;49.378;8.686;2022-08-19T05:38:30;22.88;;;19.02;;
25479;SDS011;13393;49.378;8.686;2022-08-19T05:40:57;24.48;;;19.67;;
25479;SDS011;13393;49.378;8.686;2022-08-19T05:43:23;21.98;;;19.48;;
25479;SDS011;13393;49.378;8.686;2022-08-19T05:45:50;23.10;;;18.67;;
25479;SDS011;13393;49.378;8.686;2022-08-19T05:48:17;23.85;;;19.30;;
25479;SDS011;13393;49.378;8.686;2022-08-19T05:50:45;21.83;;;18.70;;
25479;SDS011;13393;49.378;8.686;2022-08-19T05:53:15;22.40;;;19.55;;
25479;SDS011;13393;49.378;8.686;2022-08-19T05:55:42;21.98;;;19.08;;
25479;SDS011;13393;49.378;8.686;2022-08-19T05:58:09;24.85;;;20.55;;
25479;SDS011;13393;49.378;8.686;2022-08-19T06:00:36;28.98;;;21.10;;
25479;SDS011;13393;49.378;8.686;2022-08-19T06:03:03;21.05;;;18.88;;
25479;SDS011;13393;49.378;8.686;2022-08-19T06:05:29;24.00;;;20.52;;
25479;SDS011;13393;49.378;8.686;2022-08-19T06:07:56;23.63;;;20.60;;
25479;SDS011;13393;49.378;8.686;2022-08-19T06:10:22;22.88;;;19.58;;
25479;SDS011;13393;49.378;8.686;2022-08-19T06:12:50;24.65;;;19.35;;
25479;SDS011;13393;49.378;8.686;2022-08-19T06:15:16;25.10;;;19.90;;
25479;SDS011;13393;49.378;8.686;2022-08-19T06:17:43;21.30;;;19.10;;
25479;SDS011;13393;49.378;8.686;2022-08-19T06:20:11;28.55;;;21.10;;
25479;SDS011;13393;49.378;8.686;2022-08-19T06:22:38;25.23;;;19.38;;
25479;SDS011;13393;49.378;8.686;2022-08-19T06:25:05;23.02;;;19.88;;
25479;SDS011;13393;49.378;8.686;2022-08-19T06:27:32;22.42;;;19.02;;
25479;SDS011;13393;49.378;8.686;2022-08-19T06:30:00;21.48;;;18.80;;
25479;SDS011;13393;49.378;8.686;2022-08-19T06:32:26;21.77;;;19.48;;
25479;SDS011;13393;49.378;8.686;2022-08-19T06:34:52;22.27;;;19.10;;
25479;SDS011;13393;49.378;8.686;2022-08-19T06:37:19;23.05;;;18.80;;
25479;SDS011;13393;49.378;8.686;2022-08-19T06:39:46;24.63;;;18.85;;
25479;SDS011;13393;49.378;8.686;2022-08-19T06:42:13;21.80;;;18.83;;
25479;SDS011;13393;49.378;8.686;2022-08-19T06:44:44;22.50;;;17.27;;
25479;SDS011;13393;49.378;8.686;2022-08-19T06:47:13;22.35;;;18.13;;
25479;SDS011;13393;49.378;8.686;2022-08-19T06:49:40;21.52;;;18.52;;
25479;SDS011;13393;49.378;8.686;2022-08-19T06:52:07;20.83;;;17.88;;
25479;SDS011;13393;49.378;8.686;2022-08-19T06:54:36;19.33;;;17.23;;
25479;SDS011;13393;49.378;8.686;2022-08-19T06:57:04;18.80;;;16.90;;
25479;SDS011;13393;49.378;8.686;2022-08-19T06:59:31;21.42;;;17.95;;
25479;SDS011;13393;49.378;8.686;2022-08-19T07:01:59;18.83;;;16.92;;
25479;SDS011;13393;49.378;8.686;2022-08-19T07:04:28;19.55;;;17.52;;
25479;SDS011;13393;49.378;8.686;2022-08-19T07:06:56;17.63;;;15.93;;
25479;SDS011;13393;49.378;8.686;2022-08-19T07:09:23;18.20;;;15.95;;
25479;SDS011;13393;49.378;8.686;2022-08-19T07:11:50;17.33;;;15.52;;
25479;SDS011;13393;49.378;8.686;2022-08-19T07:14:23;18.10;;;14.95;;
25479;SDS011;13393;49.378;8.686;2022-08-19T07:16:50;17.70;;;15.70;;
25479;SDS011;13393;49.378;8.686;2022-08-19T07:19:17;17.58;;;15.88;;
25479;SDS011;13393;49.378;8.686;2022-08-19T07:21:45;16.40;;;14.70;;
25479;SDS011;13393;49.378;8.686;2022-08-19T07:24:11;17.10;;;15.27;;
25479;SDS011;13393;49.378;8.686;2022-08-19T07:26:39;17.48;;;13.27;;
25479;SDS011;13393;49.378;8.686;2022-08-19T07:29:06;17.25;;;15.02;;
25479;SDS011;13393;49.378;8.686;2022-08-19T07:31:32;17.00;;;14.48;;
25479;SDS011;13393;49.378;8.686;2022-08-19T07:34:02;20.08;;;16.00;;
25479;SDS011;13393;49.378;8.686;2022-08-19T07:36:32;16.08;;;14.38;;
25479;SDS011;13393;49.378;8.686;2022-08-19T07:39:02;15.77;;;13.70;;
25479;SDS011;13393;49.378;8.686;2022-08-19T07:41:29;17.13;;;14.45;;
25479;SDS011;13393;49.378;8.686;2022-08-19T07:43:57;15.75;;;13.20;;
25479;SDS011;13393;49.378;8.686;2022-08-19T07:46:24;17.27;;;13.32;;
25479;SDS011;13393;49.378;8.686;2022-08-19T07:48:51;13.00;;;11.77;;
25479;SDS011;13393;49.378;8.686;2022-08-19T07:51:19;15.88;;;14.18;;
25479;SDS011;13393;49.378;8.686;2022-08-19T07:53:46;15.82;;;14.13;;
25479;SDS011;13393;49.378;8.686;2022-08-19T07:56:13;14.90;;;13.48;;
25479;SDS011;13393;49.378;8.686;2022-08-19T07:58:41;16.80;;;13.10;;
25479;SDS011;13393;49.378;8.686;2022-08-19T08:01:09;15.75;;;14.25;;
25479;SDS011;13393;49.378;8.686;2022-08-19T08:03:35;16.70;;;13.77;;
25479;SDS011;13393;49.378;8.686;2022-08-19T08:06:19;17.80;;;12.97;;
25479;SDS011;13393;49.378;8.686;2022-08-19T08:09:00;15.10;;;12.15;;
25479;SDS011;13393;49.378;8.686;2022-08-19T08:11:44;16.27;;;12.63;;
25479;SDS011;13393;49.378;8.686;2022-08-19T08:14:13;14.70;;;13.20;;
25479;SDS011;13393;49.378;8.686;2022-08-19T08:16:40;14.23;;;12.02;;
25479;SDS011;13393;49.378;8.686;2022-08-19T08:19:08;13.18;;;11.80;;
25479;SDS011;13393;49.378;8.686;2022-08-19T08:21:35;15.63;;;12.57;;
25479;SDS011;13393;49.378;8.686;2022-08-19T08:24:01;13.13;;;11.40;;
25479;SDS011;13393;49.378;8.686;2022-08-19T08:26:28;14.75;;;11.07;;
25479;SDS011;13393;49.378;8.686;2022-08-19T08:28:56;16.58;;;11.95;;
25479;SDS011;13393;49.378;8.686;2022-08-19T08:31:22;13.60;;;11.50;;
25479;SDS011;13393;49.378;8.686;2022-08-19T08:33:48;12.07;;;10.90;;
25479;SDS011;13393;49.378;8.686;2022-08-19T08:36:15;15.52;;;11.50;;
25479;SDS011;13393;49.378;8.686;2022-08-19T08:38:44;13.80;;;11.25;;
25479;SDS011;13393;49.378;8.686;2022-08-19T08:41:13;15.00;;;11.07;;
25479;SDS011;13393;49.378;8.686;2022-08-19T08:43:44;12.10;;;10.50;;
25479;SDS011;13393;49.378;8.686;2022-08-19T08:46:13;15.23;;;10.88;;
25479;SDS011;13393;49.378;8.686;2022-08-19T08:48:44;11.45;;;10.35;;
25479;SDS011;13393;49.378;8.686;2022-08-19T08:51:14;14.02;;;10.20;;
25479;SDS011;13393;49.378;8.686;2022-08-19T08:53:42;12.48;;;9.93;;
25479;SDS011;13393;49.378;8.686;2022-08-19T08:56:09;11.65;;;10.43;;
25479;SDS011;13393;49.378;8.686;2022-08-19T08:58:41;11.27;;;9.18;;
25479;SDS011;13393;49.378;8.686;2022-08-19T09:01:11;11.75;;;9.77;;
25479;SDS011;13393;49.378;8.686;2022-08-19T09:03:39;9.98;;;8.05;;
25479;SDS011;13393;49.378;8.686;2022-08-19T09:06:07;8.73;;;7.03;;
25479;SDS011;13393;49.378;8.686;2022-08-19T09:08:37;10.80;;;8.60;;
25479;SDS011;13393;49.378;8.686;2022-08-19T09:11:06;8.82;;;7.75;;
25479;SDS011;13393;49.378;8.686;2022-08-19T09:13:35;13.38;;;8.82;;
25479;SDS011;13393;49.378;8.686;2022-08-19T09:16:11;8.23;;;7.32;;
25479;SDS011;13393;49.378;8.686;2022-08-19T09:18:41;7.85;;;7.05;;
25479;SDS011;13393;49.378;8.686;2022-08-19T09:21:08;9.63;;;8.63;;
25479;SDS011;13393;49.378;8.686;2022-08-19T09:23:34;9.02;;;8.02;;
25479;SDS011;13393;49.378;8.686;2022-08-19T09:26:01;8.77;;;7.82;;
25479;SDS011;13393;49.378;8.686;2022-08-19T09:28:27;11.63;;;8.38;;
25479;SDS011;13393;49.378;8.686;2022-08-19T09:30:54;9.20;;;7.18;;
25479;SDS011;13393;49.378;8.686;2022-08-19T09:33:20;6.80;;;5.65;;
25479;SDS011;13393;49.378;8.686;2022-08-19T09:35:48;7.53;;;6.30;;
25479;SDS011;13393;49.378;8.686;2022-08-19T09:38:15;7.20;;;6.38;;
25479;SDS011;13393;49.378;8.686;2022-08-19T09:40:41;7.78;;;6.00;;
25479;SDS011;13393;49.378;8.686;2022-08-19T09:43:07;8.05;;;5.50;;
25479;SDS011;13393;49.378;8.686;2022-08-19T09:45:35;8.52;;;6.00;;
25479;SDS011;13393;49.378;8.686;2022-08-19T09:48:01;6.10;;;5.20;;
25479;SDS011;13393;49.378;8.686;2022-08-19T09:50:28;5.68;;;5.15;;
25479;SDS011;13393;49.378;8.686;2022-08-19T09:52:58;6.65;;;4.85;;
25479;SDS011;13393;49.378;8.686;2022-08-19T09:55:25;5.80;;;4.70;;
25479;SDS011;13393;49.378;8.686;2022-08-19T09:57:53;6.18;;;5.05;;
25479;SDS011;13393;49.378;8.686;2022-08-19T10:00:19;9.20;;;5.45;;
25479;SDS011;13393;49.378;8.686;2022-08-19T10:02:46;6.45;;;4.82;;
25479;SDS011;13393;49.378;8.686;2022-08-19T10:05:12;5.10;;;4.60;;
25479;SDS011;13393;49.378;8.686;2022-08-19T10:07:56;9.43;;;5.00;;
25479;SDS011;13393;49.378;8.686;2022-08-19T10:10:28;5.63;;;4.20;;
25479;SDS011;13393;49.378;8.686;2022-08-19T10:12:54;6.72;;;5.25;;
25479;SDS011;13393;49.378;8.686;2022-08-19T10:15:20;8.25;;;5.20;;
25479;SDS011;13393;49.378;8.686;2022-08-19T10:17:47;6.85;;;4.85;;
25479;SDS011;13393;49.378;8.686;2022-08-19T10:20:13;5.28;;;4.78;;
25479;SDS011;13393;49.378;8.686;2022-08-19T10:22:40;5.63;;;4.70;;
25479;SDS011;13393;49.378;8.686;2022-08-19T10:25:07;6.65;;;4.85;;
25479;SDS011;13393;49.378;8.686;2022-08-19T10:27:35;6.60;;;5.15;;
25479;SDS011;13393;49.378;8.686;2022-08-19T10:30:03;6.25;;;5.35;;
25479;SDS011;13393;49.378;8.686;2022-08-19T10:32:30;6.43;;;5.72;;
25479;SDS011;13393;49.378;8.686;2022-08-19T10:34:56;6.45;;;5.38;;
25479;SDS011;13393;49.378;8.686;2022-08-19T10:37:22;5.72;;;5.20;;
25479;SDS011;13393;49.378;8.686;2022-08-19T10:39:49;5.97;;;5.05;;
25479;SDS011;13393;49.378;8.686;2022-08-19T10:42:16;9.02;;;4.63;;
25479;SDS011;13393;49.378;8.686;2022-08-19T10:44:44;4.85;;;4.45;;
25479;SDS011;13393;49.378;8.686;2022-08-19T10:47:13;5.05;;;4.45;;
25479;SDS011;13393;49.378;8.686;2022-08-19T10:49:39;4.72;;;4.32;;
25479;SDS011;13393;49.378;8.686;2022-08-19T10:52:20;5.47;;;4.30;;
25479;SDS011;13393;49.378;8.686;2022-08-19T10:55:02;4.30;;;3.90;;
25479;SDS011;13393;49.378;8.686;2022-08-19T10:57:47;4.07;;;3.67;;
25479;SDS011;13393;49.378;8.686;2022-08-19T11:00:14;3.97;;;3.42;;
25479;SDS011;13393;49.378;8.686;2022-08-19T11:02:41;5.38;;;3.75;;
25479;SDS011;13393;49.378;8.686;2022-08-19T11:05:08;4.88;;;3.42;;
25479;SDS011;13393;49.378;8.686;2022-08-19T11:07:35;4.30;;;3.90;;
25479;SDS011;13393;49.378;8.686;2022-08-19T11:10:02;4.68;;;3.63;;
25479;SDS011;13393;49.378;8.686;2022-08-19T11:12:29;3.95;;;3.53;;
25479;SDS011;13393;49.378;8.686;2022-08-19T11:14:55;3.90;;;3.60;;
25479;SDS011;13393;49.378;8.686;2022-08-19T11:17:26;4.95;;;3.90;;
25479;SDS011;13393;49.378;8.686;2022-08-19T11:19:53;6.63;;;4.45;;
25479;SDS011;13393;49.378;8.686;2022-08-19T11:22:19;5.07;;;4.22;;
25479;SDS011;13393;49.378;8.686;2022-08-19T11:24:46;4.88;;;4.18;;
25479;SDS011;13393;49.378;8.686;2022-08-19T11:27:12;6.93;;;4.20;;
25479;SDS011;13393;49.378;8.686;2022-08-19T11:29:39;4.85;;;4.13;;
25479;SDS011;13393;49.378;8.686;2022-08-19T11:32:06;4.80;;;3.90;;
25479;SDS011;13393;49.378;8.686;2022-08-19T11:34:35;6.00;;;4.30;;
25479;SDS011;13393;49.378;8.686;2022-08-19T11:37:03;5.38;;;4.13;;
25479;SDS011;13393;49.378;8.686;2022-08-19T11:39:31;7.57;;;5.22;;
25479;SDS011;13393;49.378;8.686;2022-08-19T11:41:57;5.65;;;4.72;;
25479;SDS011;13393;49.378;8.686;2022-08-19T11:44:24;8.27;;;4.90;;
25479;SDS011;13393;49.378;8.686;2022-08-19T11:46:51;5.55;;;5.03;;
25479;SDS011;13393;49.378;8.686;2022-08-19T11:49:18;6.55;;;5.32;;
25479;SDS011;13393;49.378;8.686;2022-08-19T11:51:46;9.38;;;5.10;;
25479;SDS011;13393;49.378;8.686;2022-08-19T11:54:14;5.50;;;4.88;;
25479;SDS011;13393;49.378;8.686;2022-08-19T11:56:42;7.68;;;5.15;;
25479;SDS011;13393;49.378;8.686;2022-08-19T11:59:08;5.45;;;4.93;;
25479;SDS011;13393;49.378;8.686;2022-08-19T12:01:35;4.80;;;4.40;;
25479;SDS011;13393;49.378;8.686;2022-08-19T12:04:02;5.03;;;4.50;;
25479;SDS011;13393;49.378;8.686;2022-08-19T12:06:31;5.40;;;4.60;;
25479;SDS011;13393;49.378;8.686;2022-08-19T12:09:01;6.32;;;4.80;;
25479;SDS011;13393;49.378;8.686;2022-08-19T12:11:28;5.65;;;4.63;;
25479;SDS011;13393;49.378;8.686;2022-08-19T12:13:55;6.57;;;5.85;;
25479;SDS011;13393;49.378;8.686;2022-08-19T12:16:23;10.05;;;5.35;;
25479;SDS011;13393;49.378;8.686;2022-08-19T12:18:50;6.68;;;5.53;;
25479;SDS011;13393;49.378;8.686;2022-08-19T12:21:18;5.40;;;4.90;;
25479;SDS011;13393;49.378;8.686;2022-08-19T12:23:46;6.68;;;5.30;;
25479;SDS011;13393;49.378;8.686;2022-08-19T12:26:14;5.53;;;4.78;;
25479;SDS011;13393;49.378;8.686;2022-08-19T12:28:41;5.00;;;4.47;;
25479;SDS011;13393;49.378;8.686;2022-08-19T12:31:08;7.07;;;4.85;;
25479;SDS011;13393;49.378;8.686;2022-08-19T12:33:36;5.07;;;4.50;;
25479;SDS011;13393;49.378;8.686;2022-08-19T12:36:04;5.40;;;4.93;;
25479;SDS011;13393;49.378;8.686;2022-08-19T12:38:31;7.93;;;4.97;;
25479;SDS011;13393;49.378;8.686;2022-08-19T12:40:59;5.75;;;4.78;;
25479;SDS011;13393;49.378;8.686;2022-08-19T12:43:26;6.72;;;5.05;;
25479;SDS011;13393;49.378;8.686;2022-08-19T12:45:55;5.38;;;4.85;;
25479;SDS011;13393;49.378;8.686;2022-08-19T12:48:21;5.97;;;5.00;;
25479;SDS011;13393;49.378;8.686;2022-08-19T12:50:48;6.15;;;5.43;;
25479;SDS011;13393;49.378;8.686;2022-08-19T12:53:14;12.20;;;5.55;;
25479;SDS011;13393;49.378;8.686;2022-08-19T12:55:41;5.80;;;4.75;;
25479;SDS011;13393;49.378;8.686;2022-08-19T12:58:08;6.15;;;4.88;;
25479;SDS011;13393;49.378;8.686;2022-08-19T13:00:36;4.90;;;4.50;;
25479;SDS011;13393;49.378;8.686;2022-08-19T13:03:03;5.40;;;4.72;;
25479;SDS011;13393;49.378;8.686;2022-08-19T13:05:31;8.10;;;4.90;;
25479;SDS011;13393;49.378;8.686;2022-08-19T13:07:58;5.68;;;4.95;;
25479;SDS011;13393;49.378;8.686;2022-08-19T13:10:27;4.80;;;4.40;;
25479;SDS011;13393;49.378;8.686;2022-08-19T13:12:54;5.30;;;4.90;;
25479;SDS011;13393;49.378;8.686;2022-08-19T13:15:21;4.63;;;4.15;;
25479;SDS011;13393;49.378;8.686;2022-08-19T13:17:50;5.43;;;4.25;;
25479;SDS011;13393;49.378;8.686;2022-08-19T13:20:17;9.75;;;4.30;;
25479;SDS011;13393;49.378;8.686;2022-08-19T13:22:44;4.80;;;4.45;;
25479;SDS011;13393;49.378;8.686;2022-08-19T13:25:11;4.93;;;4.50;;
25479;SDS011;13393;49.378;8.686;2022-08-19T13:27:39;4.53;;;4.13;;
25479;SDS011;13393;49.378;8.686;2022-08-19T13:30:07;4.35;;;3.97;;
25479;SDS011;13393;49.378;8.686;2022-08-19T13:32:53;5.35;;;3.60;;
25479;SDS011;13393;49.378;8.686;2022-08-19T13:35:39;3.95;;;3.60;;
25479;SDS011;13393;49.378;8.686;2022-08-19T13:38:06;3.80;;;3.50;;
25479;SDS011;13393;49.378;8.686;2022-08-19T13:40:33;3.80;;;3.50;;
25479;SDS011;13393;49.378;8.686;2022-08-19T13:42:59;4.60;;;4.00;;
25479;SDS011;13393;49.378;8.686;2022-08-19T13:45:27;5.30;;;3.95;;
25479;SDS011;13393;49.378;8.686;2022-08-19T13:47:56;3.72;;;3.42;;
25479;SDS011;13393;49.378;8.686;2022-08-19T13:50:23;4.00;;;3.70;;
25479;SDS011;13393;49.378;8.686;2022-08-19T13:52:51;4.32;;;3.90;;
25479;SDS011;13393;49.378;8.686;2022-08-19T13:55:17;4.40;;;4.00;;
25479;SDS011;13393;49.378;8.686;2022-08-19T13:57:44;3.95;;;3.65;;
25479;SDS011;13393;49.378;8.686;2022-08-19T14:00:12;3.53;;;3.28;;
25479;SDS011;13393;49.378;8.686;2022-08-19T14:02:39;3.83;;;3.53;;
25479;SDS011;13393;49.378;8.686;2022-08-19T14:05:08;4.63;;;4.15;;
25479;SDS011;13393;49.378;8.686;2022-08-19T14:07:36;4.05;;;3.45;;
25479;SDS011;13393;49.378;8.686;2022-08-19T14:10:04;4.07;;;3.53;;
25479;SDS011;13393;49.378;8.686;2022-08-19T14:12:31;3.85;;;3.55;;
25479;SDS011;13393;49.378;8.686;2022-08-19T14:14:57;3.85;;;3.55;;
25479;SDS011;13393;49.378;8.686;2022-08-19T14:17:24;3.90;;;3.58;;
25479;SDS011;13393;49.378;8.686;2022-08-19T14:19:55;3.75;;;3.45;;
25479;SDS011;13393;49.378;8.686;2022-08-19T14:22:23;4.35;;;3.50;;
25479;SDS011;13393;49.378;8.686;2022-08-19T14:27:00;4.28;;;3.42;;
25479;SDS011;13393;49.378;8.686;2022-08-19T14:27:57;3.60;;;3.35;;
25479;SDS011;13393;49.378;8.686;2022-08-19T14:30:25;8.75;;;3.53;;
25479;SDS011;13393;49.378;8.686;2022-08-19T14:32:53;3.58;;;3.38;;
25479;SDS011;13393;49.378;8.686;2022-08-19T14:35:20;4.13;;;3.83;;